SKG793 CYSB-CYPT
Flight info
| Callsign | SKG793 |
|---|---|
| Flight time | 1h 11m |
| Altitude | 16000 |
| Route | DCT |
| Aircraft | MU2/L-VGD/C |
Departure
| Time | 2026-05-04 00:11 |
|---|---|
| Airport | Sudbury Airport (CYSB) |
Arrival
| Time | 2026-05-04 01:22 |
|---|---|
| Airport | Pelee Island Airport (CYPT) |
| Time | Latitude | Longitude | Altitude | Speed | Heading |
|---|---|---|---|---|---|
| 2026-05-04 00:02 | 46.62785 | -80.79115 | 1149 ft | 0 kts | 286° |
| 2026-05-04 00:09 | 46.62773 | -80.79161 | 1148 ft | 10 kts | 224° |
| 2026-05-04 00:09 | 46.62730 | -80.79121 | 1147 ft | 9 kts | 106° |
| 2026-05-04 00:09 | 46.62705 | -80.78981 | 1147 ft | 14 kts | 105° |
| 2026-05-04 00:10 | 46.62678 | -80.78834 | 1146 ft | 10 kts | 104° |
| 2026-05-04 00:10 | 46.62641 | -80.78805 | 1144 ft | 4 kts | 197° |
| 2026-05-04 00:10 | 46.62576 | -80.78833 | 1141 ft | 11 kts | 207° |
| 2026-05-04 00:10 | 46.62596 | -80.79039 | 1142 ft | 55 kts | 283° |
| 2026-05-04 00:11 | 46.62801 | -80.80114 | 1200 ft | 120 kts | 283° |
| 2026-05-04 00:11 | 46.63131 | -80.81389 | 1653 ft | 122 kts | 286° |
| 2026-05-04 00:11 | 46.63260 | -80.82840 | 2002 ft | 137 kts | 240° |
| 2026-05-04 00:11 | 46.62441 | -80.83551 | 2414 ft | 153 kts | 184° |
| 2026-05-04 00:12 | 46.61367 | -80.83468 | 2846 ft | 168 kts | 182° |
| 2026-05-04 00:12 | 46.60125 | -80.83446 | 3189 ft | 181 kts | 185° |
| 2026-05-04 00:12 | 46.58831 | -80.83418 | 3603 ft | 190 kts | 184° |
| 2026-05-04 00:12 | 46.57511 | -80.83368 | 4014 ft | 194 kts | 184° |
| 2026-05-04 00:13 | 46.56131 | -80.83302 | 4477 ft | 196 kts | 184° |
| 2026-05-04 00:13 | 46.54758 | -80.83225 | 4923 ft | 200 kts | 184° |
| 2026-05-04 00:13 | 46.53422 | -80.83565 | 5436 ft | 194 kts | 206° |
| 2026-05-04 00:13 | 46.52116 | -80.84180 | 5994 ft | 198 kts | 203° |
| 2026-05-04 00:14 | 46.50775 | -80.84752 | 6519 ft | 201 kts | 204° |
| 2026-05-04 00:14 | 46.49424 | -80.85320 | 7035 ft | 202 kts | 204° |
| 2026-05-04 00:14 | 46.48072 | -80.85890 | 7543 ft | 206 kts | 204° |
| 2026-05-04 00:14 | 46.46687 | -80.86472 | 8102 ft | 207 kts | 204° |
| 2026-05-04 00:15 | 46.45270 | -80.87067 | 8640 ft | 208 kts | 204° |
| 2026-05-04 00:15 | 46.43872 | -80.87655 | 9154 ft | 211 kts | 204° |
| 2026-05-04 00:15 | 46.42441 | -80.88256 | 9695 ft | 213 kts | 204° |
| 2026-05-04 00:15 | 46.40997 | -80.88862 | 10243 ft | 215 kts | 204° |
| 2026-05-04 00:16 | 46.39537 | -80.89474 | 10781 ft | 216 kts | 204° |
| 2026-05-04 00:16 | 46.38086 | -80.90083 | 11311 ft | 218 kts | 205° |
| 2026-05-04 00:16 | 46.36630 | -80.90692 | 11859 ft | 218 kts | 205° |
| 2026-05-04 00:16 | 46.35095 | -80.91335 | 12409 ft | 218 kts | 205° |
| 2026-05-04 00:17 | 46.33577 | -80.91971 | 12933 ft | 219 kts | 206° |
| 2026-05-04 00:17 | 46.32071 | -80.92600 | 13444 ft | 220 kts | 206° |
| 2026-05-04 00:17 | 46.30577 | -80.93225 | 13894 ft | 223 kts | 206° |
| 2026-05-04 00:17 | 46.28925 | -80.93919 | 13969 ft | 241 kts | 205° |
| 2026-05-04 00:18 | 46.27077 | -80.94689 | 13977 ft | 255 kts | 205° |
| 2026-05-04 00:18 | 46.25114 | -80.95506 | 13976 ft | 264 kts | 204° |
| 2026-05-04 00:18 | 46.23086 | -80.96351 | 13973 ft | 271 kts | 204° |
| 2026-05-04 00:18 | 46.21048 | -80.97199 | 13972 ft | 275 kts | 204° |
| 2026-05-04 00:19 | 46.19134 | -80.97996 | 13971 ft | 278 kts | 204° |
| 2026-05-04 00:19 | 46.17181 | -80.98807 | 13971 ft | 279 kts | 204° |
| 2026-05-04 00:19 | 46.15102 | -80.99670 | 13971 ft | 280 kts | 204° |
| 2026-05-04 00:19 | 46.13005 | -81.00538 | 13971 ft | 281 kts | 204° |
| 2026-05-04 00:20 | 46.10997 | -81.01371 | 13971 ft | 282 kts | 204° |
| 2026-05-04 00:20 | 46.09103 | -81.02156 | 13972 ft | 282 kts | 204° |
| 2026-05-04 00:20 | 46.07221 | -81.02936 | 13974 ft | 282 kts | 204° |
| 2026-05-04 00:20 | 46.05320 | -81.03723 | 13977 ft | 282 kts | 204° |
| 2026-05-04 00:21 | 46.03442 | -81.04500 | 13980 ft | 282 kts | 204° |
| 2026-05-04 00:21 | 46.01565 | -81.05276 | 13985 ft | 281 kts | 204° |
| 2026-05-04 00:21 | 45.99681 | -81.06055 | 13993 ft | 281 kts | 204° |
| 2026-05-04 00:21 | 45.97813 | -81.06826 | 13994 ft | 281 kts | 204° |
| 2026-05-04 00:22 | 45.95911 | -81.07610 | 13997 ft | 282 kts | 204° |
| 2026-05-04 00:22 | 45.94036 | -81.08384 | 13999 ft | 282 kts | 204° |
| 2026-05-04 00:22 | 45.92134 | -81.09167 | 14002 ft | 282 kts | 204° |
| 2026-05-04 00:22 | 45.90257 | -81.09940 | 14000 ft | 282 kts | 204° |
| 2026-05-04 00:23 | 45.88358 | -81.10721 | 13995 ft | 283 kts | 204° |
| 2026-05-04 00:23 | 45.86444 | -81.11508 | 13995 ft | 282 kts | 204° |
| 2026-05-04 00:23 | 45.84545 | -81.12288 | 14000 ft | 282 kts | 204° |
| 2026-05-04 00:23 | 45.82655 | -81.13064 | 13999 ft | 283 kts | 204° |
| 2026-05-04 00:24 | 45.80777 | -81.13834 | 13999 ft | 283 kts | 204° |
| 2026-05-04 00:24 | 45.78893 | -81.14606 | 13994 ft | 283 kts | 204° |
| 2026-05-04 00:24 | 45.76973 | -81.15393 | 13997 ft | 282 kts | 204° |
| 2026-05-04 00:24 | 45.75079 | -81.16169 | 13982 ft | 283 kts | 204° |
| 2026-05-04 00:25 | 45.73192 | -81.16941 | 13972 ft | 283 kts | 204° |
| 2026-05-04 00:25 | 45.71292 | -81.17717 | 13976 ft | 283 kts | 204° |
| 2026-05-04 00:25 | 45.69377 | -81.18500 | 13974 ft | 283 kts | 204° |
| 2026-05-04 00:25 | 45.67478 | -81.19275 | 13972 ft | 283 kts | 204° |
| 2026-05-04 00:26 | 45.65573 | -81.20052 | 13968 ft | 283 kts | 204° |
| 2026-05-04 00:26 | 45.63663 | -81.20830 | 13970 ft | 283 kts | 204° |
| 2026-05-04 00:26 | 45.61776 | -81.21600 | 13972 ft | 283 kts | 204° |
| 2026-05-04 00:26 | 45.59874 | -81.22373 | 13975 ft | 283 kts | 204° |
| 2026-05-04 00:27 | 45.57966 | -81.23149 | 13972 ft | 283 kts | 204° |
| 2026-05-04 00:27 | 45.56076 | -81.23918 | 13975 ft | 283 kts | 204° |
| 2026-05-04 00:27 | 45.54154 | -81.24699 | 13976 ft | 283 kts | 204° |
| 2026-05-04 00:27 | 45.52247 | -81.25473 | 13969 ft | 283 kts | 204° |
| 2026-05-04 00:28 | 45.50352 | -81.26241 | 13974 ft | 283 kts | 204° |
| 2026-05-04 00:28 | 45.48454 | -81.27011 | 13975 ft | 283 kts | 204° |
| 2026-05-04 00:28 | 45.46552 | -81.27782 | 13979 ft | 283 kts | 204° |
| 2026-05-04 00:28 | 45.44638 | -81.28556 | 13980 ft | 284 kts | 203° |
| 2026-05-04 00:29 | 45.42741 | -81.29324 | 13972 ft | 283 kts | 204° |
| 2026-05-04 00:29 | 45.40838 | -81.30093 | 13974 ft | 280 kts | 204° |
| 2026-05-04 00:29 | 45.38950 | -81.30858 | 13975 ft | 279 kts | 203° |
| 2026-05-04 00:29 | 45.37032 | -81.31632 | 13970 ft | 277 kts | 204° |
| 2026-05-04 00:30 | 45.35070 | -81.32424 | 13817 ft | 280 kts | 202° |
| 2026-05-04 00:30 | 45.33105 | -81.33216 | 13566 ft | 285 kts | 203° |
| 2026-05-04 00:30 | 45.31131 | -81.34009 | 13286 ft | 288 kts | 203° |
| 2026-05-04 00:30 | 45.29145 | -81.34808 | 13025 ft | 289 kts | 203° |
| 2026-05-04 00:31 | 45.27206 | -81.35587 | 12783 ft | 290 kts | 203° |
| 2026-05-04 00:31 | 45.25149 | -81.36414 | 12525 ft | 291 kts | 203° |
| 2026-05-04 00:31 | 45.23026 | -81.37266 | 12273 ft | 291 kts | 203° |
| 2026-05-04 00:31 | 45.21032 | -81.38066 | 12039 ft | 292 kts | 202° |
| 2026-05-04 00:32 | 45.18851 | -81.38940 | 11980 ft | 287 kts | 202° |
| 2026-05-04 00:32 | 45.16790 | -81.39765 | 11976 ft | 283 kts | 202° |
| 2026-05-04 00:32 | 45.14849 | -81.40543 | 11976 ft | 280 kts | 203° |
| 2026-05-04 00:32 | 45.12989 | -81.41287 | 11977 ft | 279 kts | 203° |
| 2026-05-04 00:33 | 45.11109 | -81.42039 | 11983 ft | 278 kts | 203° |
| 2026-05-04 00:33 | 45.07396 | -81.43523 | 11979 ft | 278 kts | 202° |
| 2026-05-04 00:33 | 45.05519 | -81.44272 | 11982 ft | 278 kts | 202° |
| 2026-05-04 00:34 | 45.03684 | -81.45003 | 11984 ft | 278 kts | 202° |
| 2026-05-04 00:34 | 45.01811 | -81.45750 | 11982 ft | 278 kts | 202° |
| 2026-05-04 00:34 | 44.99934 | -81.46497 | 11985 ft | 278 kts | 202° |
| 2026-05-04 00:34 | 44.98078 | -81.47236 | 11980 ft | 279 kts | 202° |
| 2026-05-04 00:35 | 44.96217 | -81.47976 | 11984 ft | 279 kts | 202° |
| 2026-05-04 00:35 | 44.94347 | -81.48719 | 11987 ft | 279 kts | 202° |
| 2026-05-04 00:35 | 44.92474 | -81.49463 | 11993 ft | 279 kts | 202° |
| 2026-05-04 00:35 | 44.90603 | -81.50205 | 11988 ft | 279 kts | 202° |
| 2026-05-04 00:36 | 44.88742 | -81.50943 | 11985 ft | 279 kts | 202° |
| 2026-05-04 00:36 | 44.86862 | -81.51688 | 11984 ft | 279 kts | 202° |
| 2026-05-04 00:36 | 44.84991 | -81.52429 | 11991 ft | 279 kts | 202° |
| 2026-05-04 00:36 | 44.83113 | -81.53172 | 12002 ft | 279 kts | 202° |
| 2026-05-04 00:37 | 44.81253 | -81.53909 | 11998 ft | 280 kts | 202° |
| 2026-05-04 00:37 | 44.79370 | -81.54653 | 11993 ft | 281 kts | 202° |
| 2026-05-04 00:37 | 44.77494 | -81.55393 | 11981 ft | 281 kts | 202° |
| 2026-05-04 00:37 | 44.75603 | -81.56139 | 11995 ft | 281 kts | 202° |
| 2026-05-04 00:38 | 44.73716 | -81.56884 | 11996 ft | 281 kts | 202° |
| 2026-05-04 00:38 | 44.71852 | -81.57619 | 11994 ft | 281 kts | 202° |
| 2026-05-04 00:38 | 44.69956 | -81.58366 | 11993 ft | 281 kts | 202° |
| 2026-05-04 00:38 | 44.68083 | -81.59103 | 12002 ft | 281 kts | 202° |
| 2026-05-04 00:39 | 44.66174 | -81.59854 | 11996 ft | 282 kts | 202° |
| 2026-05-04 00:39 | 44.64302 | -81.60590 | 11996 ft | 282 kts | 202° |
| 2026-05-04 00:39 | 44.62390 | -81.61341 | 12005 ft | 282 kts | 202° |
| 2026-05-04 00:39 | 44.60520 | -81.62075 | 11997 ft | 283 kts | 202° |
| 2026-05-04 00:40 | 44.58596 | -81.62830 | 12000 ft | 283 kts | 202° |
| 2026-05-04 00:40 | 44.56700 | -81.63573 | 11997 ft | 283 kts | 202° |
| 2026-05-04 00:40 | 44.54803 | -81.64316 | 11993 ft | 283 kts | 202° |
| 2026-05-04 00:40 | 44.52898 | -81.65062 | 12009 ft | 284 kts | 202° |
| 2026-05-04 00:41 | 44.50987 | -81.65810 | 11998 ft | 285 kts | 202° |
| 2026-05-04 00:41 | 44.49090 | -81.66552 | 11995 ft | 285 kts | 202° |
| 2026-05-04 00:41 | 44.47161 | -81.67305 | 12000 ft | 285 kts | 202° |
| 2026-05-04 00:41 | 44.45252 | -81.68050 | 12007 ft | 284 kts | 202° |
| 2026-05-04 00:42 | 44.43364 | -81.68787 | 12007 ft | 284 kts | 202° |
| 2026-05-04 00:42 | 44.41447 | -81.69535 | 12021 ft | 284 kts | 202° |
| 2026-05-04 00:42 | 44.39550 | -81.70274 | 12010 ft | 285 kts | 202° |
| 2026-05-04 00:42 | 44.37639 | -81.71018 | 12014 ft | 284 kts | 202° |
| 2026-05-04 00:43 | 44.35747 | -81.71755 | 12011 ft | 285 kts | 202° |
| 2026-05-04 00:43 | 44.33831 | -81.72500 | 12006 ft | 285 kts | 202° |
| 2026-05-04 00:43 | 44.31923 | -81.73241 | 12000 ft | 283 kts | 201° |
| 2026-05-04 00:43 | 44.30040 | -81.73972 | 12017 ft | 280 kts | 202° |
| 2026-05-04 00:44 | 44.28167 | -81.74700 | 12040 ft | 277 kts | 201° |
| 2026-05-04 00:44 | 44.26315 | -81.75424 | 12008 ft | 276 kts | 202° |
| 2026-05-04 00:44 | 44.24497 | -81.76126 | 12021 ft | 272 kts | 201° |
| 2026-05-04 00:44 | 44.22670 | -81.76830 | 12013 ft | 268 kts | 202° |
| 2026-05-04 00:45 | 44.20884 | -81.77522 | 12018 ft | 266 kts | 202° |
| 2026-05-04 00:45 | 44.19120 | -81.78205 | 12033 ft | 263 kts | 202° |
| 2026-05-04 00:45 | 44.17347 | -81.78893 | 12022 ft | 261 kts | 202° |
| 2026-05-04 00:45 | 44.15601 | -81.79570 | 12026 ft | 258 kts | 202° |
| 2026-05-04 00:46 | 44.13873 | -81.80234 | 12013 ft | 256 kts | 203° |
| 2026-05-04 00:46 | 44.12166 | -81.80891 | 12020 ft | 254 kts | 203° |
| 2026-05-04 00:46 | 44.10474 | -81.81544 | 12011 ft | 253 kts | 202° |
| 2026-05-04 00:46 | 44.08775 | -81.82199 | 12013 ft | 252 kts | 202° |
| 2026-05-04 00:47 | 44.07097 | -81.82846 | 12023 ft | 251 kts | 203° |
| 2026-05-04 00:47 | 44.05423 | -81.83490 | 12134 ft | 247 kts | 203° |
| 2026-05-04 00:47 | 44.03771 | -81.84125 | 12311 ft | 242 kts | 203° |
| 2026-05-04 00:47 | 44.02170 | -81.84741 | 12499 ft | 238 kts | 203° |
| 2026-05-04 00:48 | 44.00589 | -81.85349 | 12701 ft | 234 kts | 203° |
| 2026-05-04 00:48 | 43.99046 | -81.85941 | 12987 ft | 228 kts | 204° |
| 2026-05-04 00:48 | 43.97516 | -81.86530 | 13225 ft | 225 kts | 204° |
| 2026-05-04 00:48 | 43.96023 | -81.87105 | 13419 ft | 225 kts | 204° |
| 2026-05-04 00:49 | 43.94496 | -81.87692 | 13571 ft | 226 kts | 203° |
| 2026-05-04 00:49 | 43.92968 | -81.88278 | 13724 ft | 228 kts | 203° |
| 2026-05-04 00:49 | 43.91451 | -81.88860 | 13865 ft | 229 kts | 204° |
| 2026-05-04 00:49 | 43.89909 | -81.89449 | 14024 ft | 230 kts | 204° |
| 2026-05-04 00:50 | 43.88358 | -81.90044 | 14033 ft | 236 kts | 203° |
| 2026-05-04 00:50 | 43.86752 | -81.90659 | 14014 ft | 241 kts | 203° |
| 2026-05-04 00:50 | 43.85130 | -81.91277 | 13999 ft | 244 kts | 203° |
| 2026-05-04 00:50 | 43.83486 | -81.91904 | 13983 ft | 245 kts | 202° |
| 2026-05-04 00:51 | 43.81827 | -81.92536 | 13990 ft | 246 kts | 203° |
| 2026-05-04 00:51 | 43.80167 | -81.93170 | 13999 ft | 247 kts | 202° |
| 2026-05-04 00:51 | 43.78525 | -81.93797 | 13998 ft | 248 kts | 203° |
| 2026-05-04 00:51 | 43.76832 | -81.94441 | 13991 ft | 249 kts | 202° |
| 2026-05-04 00:52 | 43.75164 | -81.95077 | 13946 ft | 251 kts | 202° |
| 2026-05-04 00:52 | 43.73480 | -81.95718 | 13923 ft | 251 kts | 202° |
| 2026-05-04 00:52 | 43.71769 | -81.96368 | 13928 ft | 251 kts | 202° |
| 2026-05-04 00:52 | 43.70099 | -81.97004 | 13928 ft | 251 kts | 202° |
| 2026-05-04 00:53 | 43.68411 | -81.97645 | 13935 ft | 251 kts | 202° |
| 2026-05-04 00:53 | 43.66716 | -81.98289 | 13941 ft | 251 kts | 202° |
| 2026-05-04 00:53 | 43.64955 | -81.98957 | 13938 ft | 251 kts | 202° |
| 2026-05-04 00:53 | 43.63246 | -81.99606 | 13945 ft | 250 kts | 202° |
| 2026-05-04 00:54 | 43.61584 | -82.00236 | 13958 ft | 249 kts | 201° |
| 2026-05-04 00:54 | 43.59893 | -82.00876 | 13971 ft | 248 kts | 201° |
| 2026-05-04 00:54 | 43.58234 | -82.01505 | 13978 ft | 248 kts | 201° |
| 2026-05-04 00:54 | 43.56587 | -82.02128 | 13980 ft | 246 kts | 201° |
| 2026-05-04 00:55 | 43.54921 | -82.02758 | 13986 ft | 246 kts | 202° |
| 2026-05-04 00:55 | 43.53287 | -82.03376 | 13998 ft | 246 kts | 202° |
| 2026-05-04 00:55 | 43.51636 | -82.04000 | 14006 ft | 246 kts | 202° |
| 2026-05-04 00:55 | 43.49963 | -82.04633 | 14002 ft | 248 kts | 202° |
| 2026-05-04 00:56 | 43.48277 | -82.05269 | 14004 ft | 249 kts | 202° |
| 2026-05-04 00:56 | 43.46423 | -82.05968 | 14008 ft | 250 kts | 201° |
| 2026-05-04 00:56 | 43.44586 | -82.06660 | 14011 ft | 251 kts | 202° |
| 2026-05-04 00:56 | 43.42744 | -82.07354 | 14012 ft | 252 kts | 201° |
| 2026-05-04 00:57 | 43.40969 | -82.08021 | 14007 ft | 253 kts | 202° |
| 2026-05-04 00:57 | 43.39237 | -82.08673 | 14003 ft | 253 kts | 201° |
| 2026-05-04 00:57 | 43.37521 | -82.09319 | 14005 ft | 253 kts | 201° |
| 2026-05-04 00:57 | 43.35779 | -82.09973 | 14012 ft | 253 kts | 201° |
| 2026-05-04 00:58 | 43.34014 | -82.10635 | 14034 ft | 253 kts | 201° |
| 2026-05-04 00:58 | 43.32307 | -82.11287 | 14153 ft | 248 kts | 203° |
| 2026-05-04 00:58 | 43.30639 | -82.11905 | 14185 ft | 252 kts | 199° |
| 2026-05-04 00:58 | 43.28890 | -82.12411 | 14012 ft | 259 kts | 199° |
| 2026-05-04 00:59 | 43.27194 | -82.13103 | 14132 ft | 250 kts | 205° |
| 2026-05-04 00:59 | 43.25539 | -82.13845 | 14150 ft | 253 kts | 202° |
| 2026-05-04 00:59 | 43.23817 | -82.14484 | 14018 ft | 259 kts | 200° |
| 2026-05-04 00:59 | 43.22068 | -82.15110 | 14017 ft | 258 kts | 201° |
| 2026-05-04 01:00 | 43.20359 | -82.15750 | 14024 ft | 257 kts | 201° |
| 2026-05-04 01:00 | 43.18626 | -82.16399 | 14012 ft | 257 kts | 201° |
| 2026-05-04 01:00 | 43.16906 | -82.17041 | 14017 ft | 257 kts | 201° |
| 2026-05-04 01:00 | 43.15174 | -82.17687 | 14007 ft | 257 kts | 201° |
| 2026-05-04 01:01 | 43.13450 | -82.18330 | 14010 ft | 257 kts | 201° |
| 2026-05-04 01:01 | 43.11729 | -82.18971 | 14004 ft | 257 kts | 201° |
| 2026-05-04 01:01 | 43.10002 | -82.19614 | 13994 ft | 256 kts | 201° |
| 2026-05-04 01:01 | 43.08275 | -82.20258 | 13999 ft | 255 kts | 201° |
| 2026-05-04 01:02 | 43.06562 | -82.20895 | 14053 ft | 256 kts | 201° |
| 2026-05-04 01:02 | 43.04838 | -82.21537 | 14034 ft | 258 kts | 201° |
| 2026-05-04 01:02 | 43.03119 | -82.22176 | 14023 ft | 259 kts | 201° |
| 2026-05-04 01:02 | 43.01369 | -82.22825 | 14011 ft | 259 kts | 201° |
| 2026-05-04 01:03 | 42.99633 | -82.23470 | 14023 ft | 258 kts | 201° |
| 2026-05-04 01:03 | 42.97920 | -82.24103 | 14149 ft | 253 kts | 201° |
| 2026-05-04 01:03 | 42.96242 | -82.24725 | 14372 ft | 247 kts | 201° |
| 2026-05-04 01:03 | 42.94612 | -82.25330 | 14601 ft | 243 kts | 201° |
| 2026-05-04 01:04 | 42.92972 | -82.25938 | 14822 ft | 241 kts | 201° |
| 2026-05-04 01:04 | 42.91364 | -82.26502 | 15020 ft | 242 kts | 199° |
| 2026-05-04 01:04 | 42.89710 | -82.26979 | 15223 ft | 241 kts | 199° |
| 2026-05-04 01:04 | 42.88062 | -82.27448 | 15423 ft | 242 kts | 199° |
| 2026-05-04 01:05 | 42.86417 | -82.27917 | 15633 ft | 242 kts | 199° |
| 2026-05-04 01:05 | 42.84782 | -82.28383 | 15834 ft | 241 kts | 199° |
| 2026-05-04 01:05 | 42.83138 | -82.28852 | 15990 ft | 243 kts | 199° |
| 2026-05-04 01:05 | 42.81447 | -82.29335 | 16002 ft | 250 kts | 199° |
| 2026-05-04 01:06 | 42.79729 | -82.29823 | 16000 ft | 255 kts | 199° |
| 2026-05-04 01:06 | 42.77984 | -82.30318 | 15989 ft | 258 kts | 199° |
| 2026-05-04 01:06 | 42.76235 | -82.30815 | 15992 ft | 259 kts | 198° |
| 2026-05-04 01:06 | 42.74457 | -82.31320 | 15996 ft | 260 kts | 198° |
| 2026-05-04 01:07 | 42.72685 | -82.31822 | 16003 ft | 261 kts | 198° |
| 2026-05-04 01:07 | 42.70909 | -82.32326 | 16018 ft | 261 kts | 198° |
| 2026-05-04 01:07 | 42.69131 | -82.32831 | 16017 ft | 263 kts | 198° |
| 2026-05-04 01:07 | 42.67337 | -82.33339 | 16016 ft | 264 kts | 198° |
| 2026-05-04 01:08 | 42.65532 | -82.33850 | 16023 ft | 264 kts | 198° |
| 2026-05-04 01:08 | 42.63733 | -82.34359 | 16024 ft | 265 kts | 198° |
| 2026-05-04 01:08 | 42.61926 | -82.34870 | 16026 ft | 265 kts | 198° |
| 2026-05-04 01:08 | 42.60112 | -82.35383 | 16025 ft | 266 kts | 198° |
| 2026-05-04 01:09 | 42.58301 | -82.35895 | 16026 ft | 266 kts | 198° |
| 2026-05-04 01:09 | 42.56508 | -82.36401 | 16027 ft | 267 kts | 198° |
| 2026-05-04 01:09 | 42.54671 | -82.36919 | 16026 ft | 267 kts | 198° |
| 2026-05-04 01:09 | 42.52862 | -82.37429 | 16018 ft | 268 kts | 198° |
| 2026-05-04 01:10 | 42.51033 | -82.37945 | 16028 ft | 268 kts | 198° |
| 2026-05-04 01:10 | 42.49218 | -82.38456 | 16032 ft | 269 kts | 198° |
| 2026-05-04 01:10 | 42.47380 | -82.38973 | 16031 ft | 269 kts | 198° |
| 2026-05-04 01:10 | 42.45531 | -82.39494 | 16033 ft | 269 kts | 198° |
| 2026-05-04 01:11 | 42.43719 | -82.40003 | 16033 ft | 270 kts | 198° |
| 2026-05-04 01:11 | 42.41879 | -82.40520 | 16032 ft | 270 kts | 198° |
| 2026-05-04 01:11 | 42.40019 | -82.41042 | 16033 ft | 270 kts | 198° |
| 2026-05-04 01:11 | 42.38193 | -82.41554 | 16036 ft | 271 kts | 198° |
| 2026-05-04 01:12 | 42.36332 | -82.42077 | 16037 ft | 271 kts | 198° |
| 2026-05-04 01:12 | 42.34505 | -82.42589 | 16036 ft | 272 kts | 198° |
| 2026-05-04 01:12 | 42.32647 | -82.43110 | 15998 ft | 273 kts | 198° |
| 2026-05-04 01:12 | 42.30767 | -82.43637 | 15889 ft | 277 kts | 198° |
| 2026-05-04 01:13 | 42.28879 | -82.44165 | 15617 ft | 285 kts | 197° |
| 2026-05-04 01:13 | 42.26904 | -82.44718 | 15180 ft | 295 kts | 197° |
| 2026-05-04 01:13 | 42.24860 | -82.45289 | 14666 ft | 303 kts | 197° |
| 2026-05-04 01:13 | 42.22806 | -82.45860 | 14173 ft | 304 kts | 196° |
| 2026-05-04 01:14 | 42.20743 | -82.46435 | 13679 ft | 302 kts | 196° |
| 2026-05-04 01:14 | 42.18686 | -82.47008 | 13192 ft | 301 kts | 196° |
| 2026-05-04 01:14 | 42.16635 | -82.47580 | 12660 ft | 301 kts | 196° |
| 2026-05-04 01:14 | 42.14595 | -82.48148 | 12114 ft | 298 kts | 197° |
| 2026-05-04 01:15 | 42.12596 | -82.48704 | 11579 ft | 296 kts | 196° |
| 2026-05-04 01:15 | 42.10587 | -82.49263 | 11010 ft | 295 kts | 196° |
| 2026-05-04 01:15 | 42.08587 | -82.49818 | 10456 ft | 293 kts | 197° |
| 2026-05-04 01:15 | 42.06605 | -82.50369 | 9905 ft | 291 kts | 197° |
| 2026-05-04 01:16 | 42.04629 | -82.50918 | 9354 ft | 289 kts | 197° |
| 2026-05-04 01:16 | 42.02659 | -82.51464 | 8806 ft | 287 kts | 197° |
| 2026-05-04 01:16 | 42.00711 | -82.52002 | 8260 ft | 282 kts | 197° |
| 2026-05-04 01:16 | 41.98772 | -82.52540 | 7711 ft | 278 kts | 197° |
| 2026-05-04 01:17 | 41.96881 | -82.53063 | 7171 ft | 274 kts | 198° |
| 2026-05-04 01:17 | 41.95002 | -82.53583 | 6631 ft | 270 kts | 198° |
| 2026-05-04 01:17 | 41.93164 | -82.54091 | 6099 ft | 266 kts | 198° |
| 2026-05-04 01:17 | 41.91331 | -82.54597 | 5562 ft | 262 kts | 198° |
| 2026-05-04 01:18 | 41.89523 | -82.55097 | 5030 ft | 259 kts | 198° |
| 2026-05-04 01:18 | 41.87692 | -82.55602 | 4492 ft | 255 kts | 198° |
| 2026-05-04 01:18 | 41.86026 | -82.56059 | 3972 ft | 230 kts | 198° |
| 2026-05-04 01:18 | 41.84546 | -82.56463 | 3427 ft | 209 kts | 199° |
| 2026-05-04 01:19 | 41.83176 | -82.56842 | 2932 ft | 193 kts | 199° |
| 2026-05-04 01:19 | 41.81922 | -82.57222 | 2606 ft | 175 kts | 200° |
| 2026-05-04 01:19 | 41.80785 | -82.57579 | 2358 ft | 159 kts | 200° |
| 2026-05-04 01:19 | 41.79752 | -82.57938 | 2120 ft | 147 kts | 202° |
| 2026-05-04 01:20 | 41.78835 | -82.58456 | 1930 ft | 131 kts | 219° |
| 2026-05-04 01:20 | 41.78310 | -82.59285 | 1801 ft | 117 kts | 245° |
| 2026-05-04 01:20 | 41.78069 | -82.60408 | 1742 ft | 130 kts | 260° |
| 2026-05-04 01:20 | 41.78085 | -82.61676 | 1563 ft | 135 kts | 269° |
| 2026-05-04 01:21 | 41.78133 | -82.62796 | 1552 ft | 114 kts | 266° |
| 2026-05-04 01:21 | 41.78112 | -82.63870 | 1353 ft | 115 kts | 262° |
| 2026-05-04 01:21 | 41.78092 | -82.64917 | 1038 ft | 113 kts | 264° |
| 2026-05-04 01:21 | 41.78072 | -82.65984 | 795 ft | 112 kts | 267° |
| 2026-05-04 01:22 | 41.78064 | -82.66997 | 614 ft | 107 kts | 265° |
| 2026-05-04 01:22 | 41.78059 | -82.67813 | 575 ft | 50 kts | 268° |
| 2026-05-04 01:22 | 41.78062 | -82.68074 | 575 ft | 12 kts | 277° |
| 2026-05-04 01:22 | 41.78048 | -82.68082 | 575 ft | 5 kts | 75° |
| 2026-05-04 01:23 | 41.78057 | -82.67866 | 575 ft | 29 kts | 90° |
| 2026-05-04 01:23 | 41.78059 | -82.67600 | 575 ft | 28 kts | 88° |
| 2026-05-04 01:23 | 41.78062 | -82.67370 | 575 ft | 20 kts | 86° |
| 2026-05-04 01:23 | 41.78040 | -82.67303 | 575 ft | 13 kts | 128° |
| 2026-05-04 01:24 | 41.77991 | -82.67217 | 575 ft | 7 kts | 114° |
| 2026-05-04 01:24 | 41.77989 | -82.67171 | 575 ft | 4 kts | 90° |
| 2026-05-04 01:24 | 41.77988 | -82.67127 | 575 ft | 5 kts | 91° |
| 2026-05-04 01:24 | 41.78003 | -82.67064 | 575 ft | 7 kts | 68° |
| 2026-05-04 01:25 | 41.77992 | -82.67039 | 575 ft | 0 kts | 175° |
| 2026-05-04 01:25 | 41.77993 | -82.67039 | 575 ft | 0 kts | 175° |